• Join FlightAware (Why Join?)
  • Login
  • US Flag 
02:11AM EDT


 

Airport Tracker/Info


-or-


 

Live Flight TrackerFlight Track Log ✈ KAL748 ✈ 02-Jul-2013 ✈ RJOB / OKJ - RKSI / ICN

Flight Track Log - Related Links

Times and Time Zones

All times are in EDT time to prevent confusion due to time zone crossing. See the KAL748 flight status page for this flight to view local times or setup timezone preferences in your user account.

Time Position Orientation Groundspeed Altitude Reporting Facility
EDT Latitude Longitude Course Direction KTS MPH feet Rate Location/Type
09:06PM 34.8484 133.6317 297° West  Level Estimated
09:07PM 34.8940 133.5197 296° West  Level Estimated
09:08PM 34.9394 133.4076 296° West  Level Estimated
09:09PM 34.9848 133.2953 296° West  Level Estimated
09:10PM 35.0301 133.1830 296° West  Level Estimated
09:11PM 35.0752 133.0705 296° West  Level Estimated
09:12PM 35.1203 132.9579 296° West  Level Estimated
09:13PM 35.1652 132.8452 296° West  Level Estimated
09:14PM 35.2101 132.7323 296° West  Level Estimated
09:15PM 35.2548 132.6193 296° West  Level Estimated
09:16PM 35.2995 132.5062 296° West  Level Estimated
09:17PM 35.3440 132.3930 296° West  Level Estimated
09:18PM 35.3884 132.2796 296° West  Level Estimated
09:19PM 35.4328 132.1662 296° West  Level Estimated
09:20PM 35.4770 132.0525 296° West  Level Estimated
09:21PM 35.5211 131.9388 296° West  Level Estimated
09:22PM 35.5651 131.8250 295° West  Level Estimated
09:23PM 35.6090 131.7110 295° West  Level Estimated
09:24PM 35.6527 131.5969 295° West  Level Estimated
09:25PM 35.6964 131.4826 295° West  Level Estimated
09:26PM 35.7400 131.3683 295° West  Level Estimated
09:27PM 35.7835 131.2538 295° West  Level Estimated
09:28PM 35.8268 131.1392 295° West  Level Estimated
09:29PM 35.8700 131.0245 295° West  Level Estimated
09:30PM 35.9132 130.9096 295° West  Level Estimated
09:31PM 35.9562 130.7946 295° West  Level Estimated
09:32PM 35.9991 130.6795 295° West  Level Estimated
09:33PM 36.0419 130.5643 295° West  Level Estimated
09:34PM 36.0846 130.4489 295° West  Level Estimated
09:35PM 36.1187 130.3566 295° West  Level Estimated
09:36PM 36.1527 130.2641 295° West  Level Estimated
09:37PM 36.1866 130.1716 294° West  Level Estimated
09:38PM 36.2205 130.0789 294° West  Level Estimated
09:39PM 36.2543 129.9863 294° West  Level Estimated
09:40PM 36.2880 129.8935 294° West  Level Estimated
09:41PM 36.3216 129.8006 294° West  Level Estimated
09:42PM 36.3552 129.7077 294° West  Level Estimated
09:43PM 36.3887 129.6147 294° West  Level Estimated
09:44PM 36.4221 129.5215 294° West  Level Estimated
09:45PM 36.4555 129.4284 294° West  Level Estimated
09:46PM 36.4888 129.3351 294° West  Level Estimated
09:47PM 36.5220 129.2418 294° West  Level Estimated
09:48PM 36.5551 129.1483 294° West  Level Estimated
09:49PM 36.5882 129.0549 294° West  Level Estimated
09:50PM 36.6212 128.9613 294° West  Level Estimated
09:51PM 36.6541 128.8676 294° West  Level Estimated
09:52PM 36.6870 128.7739 294° West  Level Estimated
09:53PM 36.7198 128.6801 294° West  Level Estimated
09:54PM 36.7525 128.5862 294° West  Level Estimated
09:55PM 36.7851 128.4922 293° West  Level Estimated
09:56PM 36.8176 128.3981 293° West  Level Estimated
09:57PM 36.8501 128.3040 293° West  Level Estimated
09:58PM 36.8825 128.2097 293° West  Level Estimated
09:59PM 36.9149 128.1154 293° West  Level Estimated
10:00PM 36.9471 128.0211 293° West  Level Estimated
10:01PM 36.9793 127.9266 293° West  Level Estimated
10:02PM 37.0114 127.8321 293° West  Level Estimated
10:03PM 37.0434 127.7374 293° West  Level Estimated
10:04PM 37.0754 127.6428 293° West  Level Estimated
10:05PM 37.1073 127.5480 293° West  Level Estimated
10:06PM 37.1391 127.4531 293° West  Level Estimated
10:07PM 37.1708 127.3582 293° West  Level Estimated
10:08PM 37.2025 127.2632 293° West  Level Estimated
10:09PM 37.2341 127.1681 293° West  Level Estimated
10:10PM 37.2656 127.0729 293° West  Level Estimated
10:11PM 37.2970 126.9777 293° West  Level Estimated
10:12PM 37.3284 126.8824 292° West  Level Estimated
10:13PM 37.3596 126.7869 292° West  Level Estimated
10:14PM 37.3908 126.6915 292° West  Level Estimated
10:15PM 37.4219 126.5959 292° West  Level Estimated
10:16PM 37.4530 126.5002 292° West  Level Estimated
10:17PM 37.4691 126.4505 292° West  Level Estimated
10:18PM 37.4691 126.4505 205° Southwest  Level Estimated
10:19PM 37.4691 126.4505 335° Northwest  Level Estimated
10:20PM 37.4691 126.4505 335° Northwest  Level Estimated
10:21PM 37.4691 126.4505 335° Northwest  Level Estimated
10:22PM 37.4691 126.4505 335° Northwest  Level Estimated
10:23PM 37.4691 126.4505 335° Northwest  Level Estimated
10:24PM 37.4691 126.4505 335° Northwest  Level Estimated
10:25PM 37.4691 126.4505 335° Northwest  Level Estimated